メインページ
METAR-TAF:

METAR-TAF

空港 :

ハマド国際空港

ドーハ, カタール

緯度: 25-16-23N, 経度: 51-36-29E, 海抜: 4m

現時点の気象観測

当レポートは48分前の03:00(UTC)に作成
東/南東の風 15kt
気温 23°C
湿度 73%
気圧 1006 hPa
視程: 7000m
高度4000ftの雲はほとんどない, 積乱雲.
高度10000ftの千切れ雲あり
激しい雷雨, 小雨

METAR: OTHH 250300Z 12015KT 7000 -TSRA FEW040CB BKN100 23/18 Q1006 NOSIG

時間: 06:48 (03:48 UTC)

予報

当レポートは4時間44分前の23:04(UTC)に作成
予報は25日の 00時(UTC)から 26日の 06時(UTC)まで有効
の風 18kt
視程: 9000m
高度4000ftの雲はほとんどない
高度10000ftの雲は散在している
25日の 03時(UTC)から 25日の 18時(UTC)まで一時的に
変向風 20kt、最大30ktの突風を伴う
視程: 5000m
高度4000ftの雲はほとんどない, 積乱雲.
高度10000ftの千切れ雲あり
激しい雷雨, 小雨

TAF: OTHH 242304Z 2500/2606 10018KT 9000 FEW040 SCT100 TEMPO 2503/2518 VRB20G30KT 5000 -TSRA FEW040CB BKN100

4,000以上の空港の気象観測と天気予報(METAR報とTAF報)

利用可能な観測所は地図上に黄色い丸と赤い丸で示す。

丸の上にカーソルを重ねると観測所名を参照できる。

次にクリックすると気象観測と天気予報を参照できる。

マップの切り替え:黒色「×」印の緑ボタンをクリックして拡大、「-」印の緑ボタンをクリックして縮小、緑色の三角印をクリックして隣りの地図に切り替え


METAR-TAF: